Time;durP1;ratioP1;P1;durP2;ratioP2;P2;SDS_P1;SDS_P2;PMS_P1;PMS_P2;Temp;Humidity;BMP_temperature;BMP_pressure;BME280_temperature;BME280_humidity;BME280_pressure;Samples;Min_cycle;Max_cycle;Signal;HPM_P1;HPM_P2
2023/07/05 00:00:31;;;;;;;1.83;1.70;;;;;;;;;;5031433;28;20189;-76
2023/07/05 00:02:57;;;;;;;2.00;1.67;;;;;;;;;;5051189;28;20206;-76
2023/07/05 00:05:23;;;;;;;2.03;1.53;;;;;;;;;;5047620;28;20269;-77
2023/07/05 00:07:49;;;;;;;1.83;1.73;;;;;;;;;;5051441;28;20181;-77
2023/07/05 00:10:15;;;;;;;4.70;1.63;;;;;;;;;;5051163;28;20181;-77
2023/07/05 00:12:41;;;;;;;2.30;1.70;;;;;;;;;;5052923;28;20677;-77
2023/07/05 00:15:08;;;;;;;2.90;1.50;;;;;;;;;;5034353;28;20174;-77
2023/07/05 00:17:35;;;;;;;2.47;1.63;;;;;;;;;;5036987;28;20628;-77
2023/07/05 00:20:02;;;;;;;1.80;1.70;;;;;;;;;;5019406;28;20182;-76
2023/07/05 00:22:28;;;;;;;2.03;1.73;;;;;;;;;;5053278;28;20190;-77
2023/07/05 00:24:55;;;;;;;2.97;2.00;;;;;;;;;;5053236;28;20307;-77
2023/07/05 00:27:22;;;;;;;2.23;1.90;;;;;;;;;;5052700;28;20256;-77
2023/07/05 00:29:49;;;;;;;2.17;1.60;;;;;;;;;;5019972;28;20547;-77
2023/07/05 00:32:15;;;;;;;2.37;1.77;;;;;;;;;;5052358;28;20186;-77
2023/07/05 00:34:41;;;;;;;2.73;2.30;;;;;;;;;;5041941;28;20192;-77
2023/07/05 00:37:07;;;;;;;4.67;2.87;;;;;;;;;;5053025;28;20831;-77
2023/07/05 00:39:33;;;;;;;9.03;3.90;;;;;;;;;;5034080;28;20197;-78
2023/07/05 00:42:00;;;;;;;6.07;3.13;;;;;;;;;;5051865;28;20231;-76
2023/07/05 00:44:27;;;;;;;8.03;3.53;;;;;;;;;;5048630;28;20182;-76
2023/07/05 00:46:57;;;;;;;6.83;2.80;;;;;;;;;;5009470;28;20240;-77
2023/07/05 00:49:25;;;;;;;3.83;3.20;;;;;;;;;;5027523;28;20194;-76
2023/07/05 00:51:53;;;;;;;3.67;3.00;;;;;;;;;;5051725;28;20650;-76
2023/07/05 00:54:22;;;;;;;3.77;2.53;;;;;;;;;;5049866;28;20240;-77
2023/07/05 00:56:54;;;;;;;5.73;2.80;;;;;;;;;;5053677;28;20705;-77
2023/07/05 00:59:24;;;;;;;6.93;3.50;;;;;;;;;;5044716;28;20209;-77
2023/07/05 01:01:50;;;;;;;8.17;3.60;;;;;;;;;;5029485;28;20194;-76
2023/07/05 01:04:18;;;;;;;7.47;3.03;;;;;;;;;;5014696;28;20210;-77
2023/07/05 01:06:47;;;;;;;3.67;2.60;;;;;;;;;;5017195;28;20209;-77
2023/07/05 01:09:14;;;;;;;6.07;2.80;;;;;;;;;;5034415;28;20567;-76
2023/07/05 01:11:51;;;;;;;5.67;2.90;;;;;;;;;;5033293;28;20186;-76
2023/07/05 01:14:23;;;;;;;6.77;3.27;;;;;;;;;;5015847;28;20205;-77
2023/07/05 01:16:58;;;;;;;9.87;3.37;;;;;;;;;;5008092;28;20292;-76
2023/07/05 01:19:38;;;;;;;6.97;3.17;;;;;;;;;;5050295;28;20189;-77
2023/07/05 01:22:11;;;;;;;5.97;3.10;;;;;;;;;;5048445;28;20264;-76
2023/07/05 01:24:41;;;;;;;4.93;2.90;;;;;;;;;;5032321;28;20276;-79
2023/07/05 01:27:24;;;;;;;4.33;3.03;;;;;;;;;;5049889;28;20217;-77
2023/07/05 01:30:10;;;;;;;5.37;3.03;;;;;;;;;;5043663;28;20268;-77
2023/07/05 01:32:41;;;;;;;4.83;2.87;;;;;;;;;;5046459;28;20288;-77
2023/07/05 01:35:08;;;;;;;4.47;3.50;;;;;;;;;;5046734;28;20264;-77
2023/07/05 01:37:36;;;;;;;5.70;3.40;;;;;;;;;;5031623;28;20205;-77
2023/07/05 01:40:15;;;;;;;6.77;3.70;;;;;;;;;;5050101;28;20205;-77
2023/07/05 01:42:42;;;;;;;3.53;2.90;;;;;;;;;;5045586;28;20185;-77
2023/07/05 01:45:09;;;;;;;5.53;3.50;;;;;;;;;;5051493;28;20173;-77
2023/07/05 01:47:47;;;;;;;3.93;3.20;;;;;;;;;;5033627;28;20364;-77
2023/07/05 01:50:21;;;;;;;5.37;3.60;;;;;;;;;;5037979;28;20288;-77
2023/07/05 01:53:01;;;;;;;7.47;4.00;;;;;;;;;;5029126;28;20794;-77
2023/07/05 01:55:31;;;;;;;5.17;3.60;;;;;;;;;;5050670;28;20677;-77
2023/07/05 01:58:01;;;;;;;3.87;3.30;;;;;;;;;;4994893;28;20178;-77
2023/07/05 02:00:28;;;;;;;4.67;3.27;;;;;;;;;;5022467;28;20178;-77
2023/07/05 02:02:59;;;;;;;5.13;3.43;;;;;;;;;;5033363;28;20185;-76
2023/07/05 02:05:28;;;;;;;5.10;3.30;;;;;;;;;;5033411;28;20224;-77
2023/07/05 02:07:55;;;;;;;3.87;3.03;;;;;;;;;;5031163;28;20186;-77
2023/07/05 02:10:21;;;;;;;3.97;3.30;;;;;;;;;;5048587;28;20178;-76
2023/07/05 02:12:48;;;;;;;4.10;2.83;;;;;;;;;;5050061;28;20205;-77
2023/07/05 02:15:14;;;;;;;4.60;3.10;;;;;;;;;;5032065;28;20673;-77
2023/07/05 02:17:41;;;;;;;5.13;3.00;;;;;;;;;;5050420;28;20261;-76
2023/07/05 02:20:07;;;;;;;3.53;2.60;;;;;;;;;;5031301;28;20185;-77
2023/07/05 02:22:33;;;;;;;3.73;2.83;;;;;;;;;;5033681;28;20186;-77
2023/07/05 02:25:00;;;;;;;3.90;2.70;;;;;;;;;;5050694;28;20231;-76
2023/07/05 02:27:28;;;;;;;3.70;2.50;;;;;;;;;;5009175;28;20670;-76
2023/07/05 02:29:54;;;;;;;2.73;2.10;;;;;;;;;;5050500;28;20181;-77
2023/07/05 02:32:20;;;;;;;2.80;2.37;;;;;;;;;;5043347;28;20214;-77
2023/07/05 02:34:50;;;;;;;3.20;2.30;;;;;;;;;;5054970;28;20276;-77
2023/07/05 02:37:16;;;;;;;3.90;2.10;;;;;;;;;;5046720;28;20201;-77
2023/07/05 02:39:42;;;;;;;3.07;2.03;;;;;;;;;;5053898;28;20704;-77
2023/07/05 02:42:08;;;;;;;2.27;1.97;;;;;;;;;;5036565;28;20213;-77
2023/07/05 02:44:35;;;;;;;2.17;1.93;;;;;;;;;;5027544;28;20187;-77
2023/07/05 02:47:01;;;;;;;4.63;2.20;;;;;;;;;;5050949;28;20189;-77
2023/07/05 02:49:27;;;;;;;2.10;1.90;;;;;;;;;;5051249;28;20176;-77
2023/07/05 02:51:54;;;;;;;2.60;2.00;;;;;;;;;;5041268;28;20641;-76
2023/07/05 02:54:20;;;;;;;2.50;1.70;;;;;;;;;;5019269;28;20213;-77
2023/07/05 02:56:46;;;;;;;2.07;1.87;;;;;;;;;;5029544;28;20233;-76
2023/07/05 02:59:12;;;;;;;2.93;1.77;;;;;;;;;;5026899;28;20190;-77
2023/07/05 03:01:39;;;;;;;2.63;1.60;;;;;;;;;;5025691;28;20182;-77
2023/07/05 03:04:05;;;;;;;1.77;1.67;;;;;;;;;;5050907;28;20676;-76
2023/07/05 03:06:31;;;;;;;3.73;1.77;;;;;;;;;;5050171;28;20198;-77
2023/07/05 03:08:58;;;;;;;2.07;1.57;;;;;;;;;;5032254;28;20269;-77
2023/07/05 03:11:24;;;;;;;1.73;1.43;;;;;;;;;;5025265;28;20273;-77
2023/07/05 03:13:50;;;;;;;3.30;1.97;;;;;;;;;;5033447;28;20213;-77
2023/07/05 03:16:16;;;;;;;1.73;1.63;;;;;;;;;;5035860;28;20293;-77
2023/07/05 03:18:42;;;;;;;2.50;1.57;;;;;;;;;;5037592;28;20269;-77
2023/07/05 03:21:08;;;;;;;2.67;1.90;;;;;;;;;;5031929;28;20182;-77
2023/07/05 03:23:35;;;;;;;4.13;2.00;;;;;;;;;;5030599;28;20620;-76
2023/07/05 03:26:03;;;;;;;2.20;2.00;;;;;;;;;;5044090;28;20292;-77
2023/07/05 03:28:30;;;;;;;2.10;1.87;;;;;;;;;;5050313;28;20232;-76
2023/07/05 03:30:59;;;;;;;3.97;2.10;;;;;;;;;;5046239;28;20183;-76
2023/07/05 03:33:26;;;;;;;4.47;2.03;;;;;;;;;;5007667;28;20207;-77
2023/07/05 03:35:53;;;;;;;3.10;2.17;;;;;;;;;;5032000;28;20206;-77
2023/07/05 03:38:19;;;;;;;2.97;2.20;;;;;;;;;;5011361;28;20270;-77
2023/07/05 03:40:45;;;;;;;2.97;2.00;;;;;;;;;;5014815;28;20528;-77
2023/07/05 03:43:12;;;;;;;4.53;2.30;;;;;;;;;;5022536;28;20193;-76
2023/07/05 03:45:38;;;;;;;3.33;2.30;;;;;;;;;;5028760;28;20281;-77
2023/07/05 03:48:04;;;;;;;3.57;2.10;;;;;;;;;;5048509;28;20193;-77
2023/07/05 03:50:34;;;;;;;4.07;2.30;;;;;;;;;;5049433;28;20213;-77
2023/07/05 03:53:00;;;;;;;3.83;2.07;;;;;;;;;;5041566;28;20215;-76
2023/07/05 03:55:26;;;;;;;2.20;2.00;;;;;;;;;;5026990;28;20186;-77
2023/07/05 03:57:52;;;;;;;2.67;2.30;;;;;;;;;;5029042;28;20186;-77
2023/07/05 04:00:19;;;;;;;4.40;2.47;;;;;;;;;;5028649;28;20243;-76
2023/07/05 04:02:45;;;;;;;4.73;2.20;;;;;;;;;;5047999;28;20673;-76
2023/07/05 04:05:11;;;;;;;3.63;2.43;;;;;;;;;;5031561;28;20186;-76
2023/07/05 04:07:37;;;;;;;4.03;2.40;;;;;;;;;;5047317;28;20243;-77
2023/07/05 04:10:03;;;;;;;3.40;2.33;;;;;;;;;;5048707;28;20181;-77
2023/07/05 04:12:31;;;;;;;3.50;2.27;;;;;;;;;;5031825;28;20381;-77
2023/07/05 04:14:57;;;;;;;4.47;2.70;;;;;;;;;;5049356;28;20555;-77
2023/07/05 04:17:23;;;;;;;3.33;2.50;;;;;;;;;;5048619;28;20202;-77
2023/07/05 04:19:49;;;;;;;4.03;2.50;;;;;;;;;;5049188;28;20618;-76
2023/07/05 04:22:15;;;;;;;2.83;2.23;;;;;;;;;;5049938;28;20202;-77
2023/07/05 04:24:41;;;;;;;2.60;2.40;;;;;;;;;;5048953;28;20201;-77
2023/07/05 04:27:08;;;;;;;3.30;2.43;;;;;;;;;;5021073;28;20572;-77
2023/07/05 04:29:34;;;;;;;4.83;2.60;;;;;;;;;;5040861;28;20214;-77
2023/07/05 04:32:00;;;;;;;3.00;2.70;;;;;;;;;;5054846;28;20251;-77
2023/07/05 04:34:26;;;;;;;3.43;2.53;;;;;;;;;;5054160;28;20236;-77
2023/07/05 04:36:52;;;;;;;2.80;2.50;;;;;;;;;;5059053;28;20284;-77
2023/07/05 04:39:18;;;;;;;3.47;2.73;;;;;;;;;;5030880;28;20297;-77
2023/07/05 04:41:44;;;;;;;3.10;2.47;;;;;;;;;;5051370;28;20216;-77
2023/07/05 04:44:11;;;;;;;3.63;2.50;;;;;;;;;;5055229;28;20189;-77
2023/07/05 04:46:37;;;;;;;3.27;2.63;;;;;;;;;;5054136;28;20201;-77
2023/07/05 04:49:03;;;;;;;5.43;2.70;;;;;;;;;;5050473;28;20681;-77
2023/07/05 04:51:29;;;;;;;4.30;3.00;;;;;;;;;;5037495;28;20271;-77
2023/07/05 04:53:55;;;;;;;4.50;2.73;;;;;;;;;;5017123;28;20211;-76
2023/07/05 04:56:21;;;;;;;4.87;2.97;;;;;;;;;;5052818;28;20220;-77
2023/07/05 04:58:50;;;;;;;3.07;2.77;;;;;;;;;;5051965;28;20202;-77
2023/07/05 05:01:18;;;;;;;4.43;3.03;;;;;;;;;;5052590;28;20182;-77
2023/07/05 05:03:44;;;;;;;3.47;2.80;;;;;;;;;;5053676;28;20282;-76
2023/07/05 05:06:10;;;;;;;5.23;2.63;;;;;;;;;;5051100;28;20209;-77
2023/07/05 05:08:37;;;;;;;4.23;2.90;;;;;;;;;;5036102;28;20202;-77
2023/07/05 05:11:04;;;;;;;4.30;2.90;;;;;;;;;;5050246;28;20189;-77
2023/07/05 05:13:31;;;;;;;3.80;2.60;;;;;;;;;;5050608;28;20855;-76
2023/07/05 05:15:57;;;;;;;3.30;2.93;;;;;;;;;;5033319;28;20202;-77
2023/07/05 05:18:24;;;;;;;4.57;2.97;;;;;;;;;;5049578;28;20228;-77
2023/07/05 05:20:50;;;;;;;5.17;2.90;;;;;;;;;;5041922;28;20182;-78
2023/07/05 05:23:17;;;;;;;3.10;2.50;;;;;;;;;;5048287;28;20576;-78
2023/07/05 05:25:43;;;;;;;4.67;2.70;;;;;;;;;;5030107;28;20258;-79
2023/07/05 05:28:10;;;;;;;4.40;2.93;;;;;;;;;;5048233;28;20178;-75
2023/07/05 05:30:36;;;;;;;4.77;2.80;;;;;;;;;;5042229;28;20660;-76
2023/07/05 05:33:03;;;;;;;5.07;2.40;;;;;;;;;;5050180;28;20224;-76
2023/07/05 05:35:30;;;;;;;3.83;2.60;;;;;;;;;;5048281;28;20658;-77
2023/07/05 05:37:56;;;;;;;3.53;2.63;;;;;;;;;;5013406;28;20179;-82
2023/07/05 05:40:23;;;;;;;3.60;2.77;;;;;;;;;;5049759;28;20241;-79
2023/07/05 05:42:49;;;;;;;6.17;3.00;;;;;;;;;;5050674;28;20273;-78
2023/07/05 05:45:15;;;;;;;5.03;2.80;;;;;;;;;;5030756;28;20236;-80
2023/07/05 05:47:41;;;;;;;5.47;3.10;;;;;;;;;;5014677;28;20190;-81
2023/07/05 05:50:07;;;;;;;5.27;3.13;;;;;;;;;;5041076;28;20586;-80
2023/07/05 05:52:35;;;;;;;5.73;3.00;;;;;;;;;;5055433;28;20189;-81
2023/07/05 05:55:02;;;;;;;4.27;3.23;;;;;;;;;;5038450;28;20661;-80
2023/07/05 05:57:28;;;;;;;5.20;3.20;;;;;;;;;;5051713;28;20197;-80
2023/07/05 05:59:55;;;;;;;4.67;3.23;;;;;;;;;;5003851;28;20185;-80
2023/07/05 06:02:21;;;;;;;5.63;3.30;;;;;;;;;;5055723;28;20186;-82
2023/07/05 06:04:47;;;;;;;6.50;3.37;;;;;;;;;;5026112;28;20182;-80
2023/07/05 06:07:13;;;;;;;5.13;3.40;;;;;;;;;;5031799;28;20202;-80
2023/07/05 06:09:43;;;;;;;5.20;3.23;;;;;;;;;;5010471;28;20696;-80
2023/07/05 06:12:09;;;;;;;4.00;3.13;;;;;;;;;;5032257;28;20190;-80
2023/07/05 06:14:35;;;;;;;4.17;3.30;;;;;;;;;;5022668;28;20233;-80
2023/07/05 06:17:01;;;;;;;4.70;2.80;;;;;;;;;;5021510;28;20205;-81
2023/07/05 06:19:27;;;;;;;4.67;3.30;;;;;;;;;;4996497;28;20245;-81
2023/07/05 06:21:54;;;;;;;3.70;3.10;;;;;;;;;;5054312;28;20213;-81
2023/07/05 06:24:20;;;;;;;4.27;3.10;;;;;;;;;;5040211;28;20351;-81
2023/07/05 06:26:46;;;;;;;4.43;3.00;;;;;;;;;;5020899;28;20262;-81
2023/07/05 06:29:12;;;;;;;3.90;3.07;;;;;;;;;;5035048;28;20209;-78
2023/07/05 06:31:38;;;;;;;5.43;3.60;;;;;;;;;;5050825;28;20224;-77
2023/07/05 06:34:04;;;;;;;8.53;3.50;;;;;;;;;;5032831;28;20640;-76
2023/07/05 06:36:31;;;;;;;6.17;3.40;;;;;;;;;;5030090;28;20209;-76
2023/07/05 06:38:57;;;;;;;6.30;3.73;;;;;;;;;;5051120;28;20227;-76
2023/07/05 06:41:23;;;;;;;4.20;3.57;;;;;;;;;;5050783;28;20166;-76
2023/07/05 06:43:49;;;;;;;3.93;3.37;;;;;;;;;;5043224;28;20200;-77
2023/07/05 06:46:16;;;;;;;4.10;3.50;;;;;;;;;;5045067;28;20576;-77
2023/07/05 06:48:42;;;;;;;4.63;3.63;;;;;;;;;;5050258;28;20178;-77
2023/07/05 06:51:08;;;;;;;5.07;3.80;;;;;;;;;;5050758;28;20261;-77
2023/07/05 06:53:34;;;;;;;6.60;4.00;;;;;;;;;;5015174;28;20210;-77
2023/07/05 06:56:00;;;;;;;11.13;4.37;;;;;;;;;;5050029;28;20403;-77
2023/07/05 06:58:26;;;;;;;5.00;4.17;;;;;;;;;;5050072;28;20228;-76
2023/07/05 07:00:52;;;;;;;4.73;4.00;;;;;;;;;;5046650;28;20181;-76
2023/07/05 07:03:18;;;;;;;5.77;4.37;;;;;;;;;;5048524;28;20203;-76
2023/07/05 07:05:48;;;;;;;5.10;4.60;;;;;;;;;;5045000;28;20677;-77
2023/07/05 07:08:14;;;;;;;6.73;4.30;;;;;;;;;;5050855;28;20186;-76
2023/07/05 07:10:40;;;;;;;6.40;4.53;;;;;;;;;;5050053;28;20197;-76
2023/07/05 07:13:07;;;;;;;5.37;4.77;;;;;;;;;;5049700;28;20233;-77
2023/07/05 07:15:33;;;;;;;8.87;4.60;;;;;;;;;;5049592;28;20279;-76
2023/07/05 07:17:59;;;;;;;5.03;4.23;;;;;;;;;;5015337;28;20177;-76
2023/07/05 07:20:25;;;;;;;6.50;5.17;;;;;;;;;;5048703;28;20190;-76
2023/07/05 07:22:52;;;;;;;7.23;5.03;;;;;;;;;;5030846;28;20256;-76
2023/07/05 07:25:18;;;;;;;6.23;5.20;;;;;;;;;;5044150;28;20174;-76
2023/07/05 07:27:44;;;;;;;9.03;4.97;;;;;;;;;;5039981;28;20269;-76
2023/07/05 07:30:11;;;;;;;5.80;5.20;;;;;;;;;;5040317;28;20776;-76
2023/07/05 07:32:37;;;;;;;5.50;4.87;;;;;;;;;;5019463;28;20204;-77
2023/07/05 07:35:03;;;;;;;5.43;4.70;;;;;;;;;;5046226;28;20261;-76
2023/07/05 07:37:32;;;;;;;6.43;5.10;;;;;;;;;;5046842;28;20198;-76
2023/07/05 07:39:59;;;;;;;4.93;4.43;;;;;;;;;;5049888;28;20193;-76
2023/07/05 07:42:25;;;;;;;5.97;4.40;;;;;;;;;;5041624;28;20265;-79
2023/07/05 07:44:53;;;;;;;6.17;4.37;;;;;;;;;;5051863;28;20243;-81
2023/07/05 07:47:19;;;;;;;6.70;4.87;;;;;;;;;;5026021;28;20202;-76
2023/07/05 07:49:45;;;;;;;6.27;4.33;;;;;;;;;;5049736;28;20202;-77
2023/07/05 07:52:13;;;;;;;5.23;4.30;;;;;;;;;;5051328;28;20701;-76
2023/07/05 07:54:40;;;;;;;7.17;4.50;;;;;;;;;;5048530;28;20214;-74
2023/07/05 07:57:06;;;;;;;5.90;4.40;;;;;;;;;;5045831;28;20718;-77
2023/07/05 07:59:35;;;;;;;7.17;4.50;;;;;;;;;;5039805;28;20224;-77
2023/07/05 08:02:02;;;;;;;7.07;4.80;;;;;;;;;;5026392;28;20186;-78
2023/07/05 08:04:28;;;;;;;5.07;4.57;;;;;;;;;;5049846;28;20178;-77
2023/07/05 08:06:54;;;;;;;4.80;4.30;;;;;;;;;;5030536;28;20251;-77
2023/07/05 08:09:22;;;;;;;4.67;4.00;;;;;;;;;;5054841;28;20201;-77
2023/07/05 08:11:49;;;;;;;6.97;4.47;;;;;;;;;;5056425;28;20546;-77
2023/07/05 08:14:17;;;;;;;5.00;4.40;;;;;;;;;;5059331;28;20217;-77
2023/07/05 08:16:43;;;;;;;6.03;4.00;;;;;;;;;;5049301;28;20248;-78
2023/07/05 08:19:10;;;;;;;5.00;3.77;;;;;;;;;;5049445;28;20772;-78
2023/07/05 08:21:39;;;;;;;4.53;3.80;;;;;;;;;;5050357;28;20186;-77
2023/07/05 08:24:05;;;;;;;7.00;4.00;;;;;;;;;;5050994;28;20228;-77
2023/07/05 08:26:32;;;;;;;4.60;4.10;;;;;;;;;;5050464;28;20227;-77
2023/07/05 08:28:58;;;;;;;4.83;3.83;;;;;;;;;;5054551;28;20178;-77
2023/07/05 08:31:24;;;;;;;4.77;3.93;;;;;;;;;;5037905;28;20174;-77
2023/07/05 08:33:51;;;;;;;4.40;4.00;;;;;;;;;;5035887;28;20214;-77
2023/07/05 08:36:19;;;;;;;5.40;3.80;;;;;;;;;;5050584;28;20194;-77
2023/07/05 08:38:49;;;;;;;5.07;3.90;;;;;;;;;;5049181;28;20184;-77
2023/07/05 08:41:36;;;;;;;5.70;3.80;;;;;;;;;;5054040;28;20223;-77
2023/07/05 08:44:17;;;;;;;4.33;3.90;;;;;;;;;;5047900;28;20193;-77
2023/07/05 08:46:45;;;;;;;6.17;4.00;;;;;;;;;;5034019;28;20209;-77
2023/07/05 08:49:13;;;;;;;5.03;3.43;;;;;;;;;;5053374;28;20543;-77
2023/07/05 08:51:41;;;;;;;4.53;3.80;;;;;;;;;;5040506;28;20196;-77
2023/07/05 08:54:11;;;;;;;4.17;3.73;;;;;;;;;;5048282;28;20206;-77
2023/07/05 08:56:43;;;;;;;4.60;3.77;;;;;;;;;;5052503;28;20612;-77
2023/07/05 08:59:27;;;;;;;5.50;4.00;;;;;;;;;;5050598;28;20300;-77
2023/07/05 09:01:56;;;;;;;4.80;3.50;;;;;;;;;;5017227;28;20223;-77
2023/07/05 09:04:24;;;;;;;4.67;3.80;;;;;;;;;;5035394;28;20189;-77
2023/07/05 09:07:14;;;;;;;4.77;3.40;;;;;;;;;;5051033;28;20618;-77
2023/07/05 09:09:58;;;;;;;4.37;3.40;;;;;;;;;;5051852;28;20232;-77
2023/07/05 09:12:50;;;;;;;4.10;3.70;;;;;;;;;;5034227;28;20182;-77
2023/07/05 09:15:23;;;;;;;4.20;3.33;;;;;;;;;;5035031;28;20185;-77
2023/07/05 09:17:52;;;;;;;6.37;3.57;;;;;;;;;;5052430;28;20186;-77
2023/07/05 09:20:24;;;;;;;6.10;3.70;;;;;;;;;;5049226;28;20181;-77
2023/07/05 09:22:52;;;;;;;4.50;3.43;;;;;;;;;;5052353;28;20261;-77
2023/07/05 09:25:21;;;;;;;3.93;3.43;;;;;;;;;;5049045;28;20632;-77
2023/07/05 09:27:51;;;;;;;4.60;3.10;;;;;;;;;;5051786;28;20520;-77
2023/07/05 09:30:25;;;;;;;4.50;3.50;;;;;;;;;;5046930;28;20198;-77
2023/07/05 09:33:03;;;;;;;4.63;3.53;;;;;;;;;;5049404;28;20275;-77
2023/07/05 09:35:30;;;;;;;4.27;3.40;;;;;;;;;;5050309;28;20197;-77
2023/07/05 09:37:56;;;;;;;4.13;3.33;;;;;;;;;;5035037;28;20184;-77
2023/07/05 09:40:26;;;;;;;4.00;3.40;;;;;;;;;;5051391;28;20622;-77
2023/07/05 09:43:06;;;;;;;5.50;3.40;;;;;;;;;;5052685;28;20208;-77
2023/07/05 09:45:33;;;;;;;5.53;3.60;;;;;;;;;;5030321;28;20614;-77
2023/07/05 09:48:04;;;;;;;5.50;3.67;;;;;;;;;;5051265;28;20205;-77
2023/07/05 09:50:32;;;;;;;3.97;3.47;;;;;;;;;;5032957;28;20205;-77
2023/07/05 09:53:12;;;;;;;4.50;3.57;;;;;;;;;;5034731;28;20202;-77
2023/07/05 09:55:59;;;;;;;5.53;3.67;;;;;;;;;;5048075;28;20222;-77
2023/07/05 09:58:26;;;;;;;4.83;3.37;;;;;;;;;;5050345;28;20200;-77
2023/07/05 10:00:52;;;;;;;4.20;3.37;;;;;;;;;;5055620;28;20261;-77
2023/07/05 10:03:20;;;;;;;3.97;3.57;;;;;;;;;;5052066;28;20633;-77
2023/07/05 10:05:54;;;;;;;6.60;3.30;;;;;;;;;;5052810;28;20224;-77
2023/07/05 10:08:22;;;;;;;4.30;3.30;;;;;;;;;;5037741;28;20254;-77
2023/07/05 10:10:49;;;;;;;3.30;3.00;;;;;;;;;;5053801;28;20586;-77
2023/07/05 10:13:19;;;;;;;3.80;3.20;;;;;;;;;;5058214;28;20669;-77
2023/07/05 10:15:47;;;;;;;4.47;2.93;;;;;;;;;;5050729;28;20215;-77
2023/07/05 10:18:25;;;;;;;3.27;2.97;;;;;;;;;;5051202;28;20185;-77
2023/07/05 10:20:52;;;;;;;3.57;3.03;;;;;;;;;;5032868;28;20802;-77
2023/07/05 10:23:19;;;;;;;3.60;2.70;;;;;;;;;;5033145;28;20202;-77
2023/07/05 10:25:45;;;;;;;7.20;3.00;;;;;;;;;;5032500;28;20206;-77
2023/07/05 10:28:15;;;;;;;3.27;2.93;;;;;;;;;;5045081;28;20181;-77
2023/07/05 10:30:51;;;;;;;3.13;2.83;;;;;;;;;;5053382;28;20192;-77
2023/07/05 10:33:23;;;;;;;4.83;2.90;;;;;;;;;;5046546;28;20300;-77
2023/07/05 10:36:24;;;;;;;3.20;2.73;;;;;;;;;;5031401;28;20185;-80
2023/07/05 10:38:51;;;;;;;5.70;2.80;;;;;;;;;;4962540;28;20331;-76
2023/07/05 10:41:20;;;;;;;3.73;2.73;;;;;;;;;;5032283;28;20534;-76
2023/07/05 10:43:54;;;;;;;4.73;2.50;;;;;;;;;;5032432;28;20186;-76
2023/07/05 10:46:22;;;;;;;4.53;2.63;;;;;;;;;;5046706;28;20202;-76
2023/07/05 10:48:49;;;;;;;4.77;2.37;;;;;;;;;;5041498;28;20239;-76
2023/07/05 10:51:17;;;;;;;3.63;2.30;;;;;;;;;;5048944;28;20183;-76
2023/07/05 10:53:44;;;;;;;2.50;2.30;;;;;;;;;;5050928;28;20237;-76
2023/07/05 10:56:14;;;;;;;3.23;2.20;;;;;;;;;;5048749;28;20206;-76
2023/07/05 10:58:45;;;;;;;3.70;2.20;;;;;;;;;;5050268;28;20181;-76
2023/07/05 11:01:18;;;;;;;3.40;2.40;;;;;;;;;;5013650;28;20572;-74
2023/07/05 11:03:51;;;;;;;3.03;2.30;;;;;;;;;;5025493;28;20181;-77
2023/07/05 11:06:18;;;;;;;3.87;2.30;;;;;;;;;;5043660;28;20618;-76
2023/07/05 11:08:45;;;;;;;4.03;2.70;;;;;;;;;;5049329;28;20178;-76
2023/07/05 11:11:17;;;;;;;3.23;2.27;;;;;;;;;;5037626;28;20232;-76
2023/07/05 11:13:44;;;;;;;2.93;2.17;;;;;;;;;;5050643;28;20213;-76
2023/07/05 11:16:15;;;;;;;4.40;2.40;;;;;;;;;;5048609;28;20208;-76
2023/07/05 11:18:41;;;;;;;2.80;2.30;;;;;;;;;;5050783;28;20190;-76
2023/07/05 11:21:27;;;;;;;3.07;2.00;;;;;;;;;;5039843;28;20182;-76
2023/07/05 11:23:54;;;;;;;3.33;2.20;;;;;;;;;;5046261;28;20181;-76
2023/07/05 11:26:38;;;;;;;2.53;2.20;;;;;;;;;;5039761;28;20210;-76
2023/07/05 11:29:23;;;;;;;2.53;2.07;;;;;;;;;;5041393;28;20200;-76
2023/07/05 11:31:49;;;;;;;3.37;2.20;;;;;;;;;;5044634;28;20186;-76
2023/07/05 11:34:21;;;;;;;3.00;2.20;;;;;;;;;;5046110;28;20244;-76
2023/07/05 11:36:47;;;;;;;3.13;2.20;;;;;;;;;;5049839;28;20271;-76
2023/07/05 11:39:32;;;;;;;2.70;2.30;;;;;;;;;;5045713;28;20649;-76
2023/07/05 11:42:24;;;;;;;2.30;1.90;;;;;;;;;;5048017;28;20207;-76
2023/07/05 11:44:53;;;;;;;4.50;2.10;;;;;;;;;;5042165;28;20178;-76
2023/07/05 11:47:22;;;;;;;2.80;2.17;;;;;;;;;;5029036;28;20221;-77
2023/07/05 11:49:53;;;;;;;4.80;2.40;;;;;;;;;;5051600;28;20522;-75
2023/07/05 11:52:22;;;;;;;4.23;2.27;;;;;;;;;;5048972;28;20182;-75
2023/07/05 11:55:05;;;;;;;3.73;2.10;;;;;;;;;;5041417;28;20701;-75
2023/07/05 11:57:35;;;;;;;3.33;2.30;;;;;;;;;;5043371;28;20566;-75
2023/07/05 12:00:14;;;;;;;3.13;2.23;;;;;;;;;;5048117;28;20735;-75
2023/07/05 12:02:53;;;;;;;3.53;2.20;;;;;;;;;;5032617;28;20247;-76
2023/07/05 12:05:21;;;;;;;4.73;2.23;;;;;;;;;;5046784;28;20208;-75
2023/07/05 12:07:48;;;;;;;2.70;2.37;;;;;;;;;;5044857;28;20174;-73
2023/07/05 12:10:18;;;;;;;4.87;2.10;;;;;;;;;;5045321;28;20180;-74
2023/07/05 12:12:45;;;;;;;5.70;2.40;;;;;;;;;;5047763;28;20181;-75
2023/07/05 12:15:11;;;;;;;2.30;2.10;;;;;;;;;;5048532;28;20184;-73
2023/07/05 12:17:38;;;;;;;3.33;2.00;;;;;;;;;;5041659;28;20202;-72
2023/07/05 12:20:24;;;;;;;3.43;2.40;;;;;;;;;;5045662;28;20645;-73
2023/07/05 12:22:51;;;;;;;3.57;2.20;;;;;;;;;;5041602;28;20616;-74
2023/07/05 12:25:19;;;;;;;3.23;2.20;;;;;;;;;;5043385;28;20186;-73
2023/07/05 12:27:45;;;;;;;4.07;2.07;;;;;;;;;;5043970;28;20208;-73
2023/07/05 12:30:19;;;;;;;3.47;2.40;;;;;;;;;;5047435;28;20221;-73
2023/07/05 12:32:53;;;;;;;2.83;2.17;;;;;;;;;;5049610;28;20188;-73
2023/07/05 12:35:21;;;;;;;2.70;2.17;;;;;;;;;;5031781;28;20687;-73
2023/07/05 12:37:51;;;;;;;3.50;2.20;;;;;;;;;;5042671;28;20184;-73
2023/07/05 12:40:17;;;;;;;2.87;2.17;;;;;;;;;;5047320;28;20685;-73
2023/07/05 12:42:54;;;;;;;2.53;2.03;;;;;;;;;;5041585;28;20859;-72
2023/07/05 12:45:23;;;;;;;3.00;2.30;;;;;;;;;;5045714;28;20194;-73
2023/07/05 12:47:49;;;;;;;3.90;2.33;;;;;;;;;;5047904;28;20202;-72
2023/07/05 12:50:23;;;;;;;3.50;2.10;;;;;;;;;;5043418;28;20271;-72
2023/07/05 12:53:03;;;;;;;5.27;2.37;;;;;;;;;;5042392;28;20225;-72
2023/07/05 12:55:31;;;;;;;4.40;2.40;;;;;;;;;;5050232;28;20183;-72
2023/07/05 12:57:57;;;;;;;2.80;2.10;;;;;;;;;;5043808;28;20630;-72
2023/07/05 13:00:23;;;;;;;3.80;2.17;;;;;;;;;;5053585;28;20181;-72
2023/07/05 13:02:50;;;;;;;2.97;2.23;;;;;;;;;;5053798;28;20174;-72
2023/07/05 13:05:17;;;;;;;3.17;2.30;;;;;;;;;;5050645;28;20182;-72
2023/07/05 13:07:43;;;;;;;3.17;2.13;;;;;;;;;;5038908;28;20186;-72
2023/07/05 13:10:10;;;;;;;3.53;2.30;;;;;;;;;;5034718;28;20242;-72
2023/07/05 13:12:50;;;;;;;2.33;2.00;;;;;;;;;;5051282;28;20659;-72
2023/07/05 13:15:16;;;;;;;2.53;2.00;;;;;;;;;;5048974;28;20272;-72
2023/07/05 13:17:42;;;;;;;4.23;2.10;;;;;;;;;;5048419;28;20189;-72
2023/07/05 13:20:13;;;;;;;3.00;2.13;;;;;;;;;;5052256;28;20254;-72
2023/07/05 13:22:46;;;;;;;2.63;2.30;;;;;;;;;;5052408;28;20201;-72
2023/07/05 13:25:25;;;;;;;2.67;2.13;;;;;;;;;;5052302;28;20545;-72
2023/07/05 13:27:52;;;;;;;2.53;2.10;;;;;;;;;;5032487;28;20734;-72
2023/07/05 13:30:19;;;;;;;2.40;2.20;;;;;;;;;;5045248;28;20650;-72
2023/07/05 13:32:47;;;;;;;3.50;2.20;;;;;;;;;;5052769;28;20174;-72
2023/07/05 13:35:13;;;;;;;2.20;2.00;;;;;;;;;;5051154;28;20268;-72
2023/07/05 13:37:39;;;;;;;2.20;2.00;;;;;;;;;;5048697;28;20205;-72
2023/07/05 13:40:10;;;;;;;4.07;2.30;;;;;;;;;;5049842;28;20188;-72
2023/07/05 13:42:41;;;;;;;4.73;2.30;;;;;;;;;;5052601;28;20246;-72
2023/07/05 13:45:18;;;;;;;5.07;2.50;;;;;;;;;;5052823;28;20184;-72
2023/07/05 13:47:44;;;;;;;6.33;2.20;;;;;;;;;;5052016;28;20215;-72
2023/07/05 13:50:14;;;;;;;3.23;2.20;;;;;;;;;;5052019;28;20185;-72
2023/07/05 13:52:41;;;;;;;2.83;1.80;;;;;;;;;;5051279;28;20211;-72
2023/07/05 13:55:14;;;;;;;2.93;2.20;;;;;;;;;;5052493;28;20692;-72
2023/07/05 13:57:51;;;;;;;3.23;2.30;;;;;;;;;;5015312;28;20331;-72
2023/07/05 14:00:18;;;;;;;3.33;2.33;;;;;;;;;;5050671;28;20185;-72
2023/07/05 14:02:44;;;;;;;4.23;2.00;;;;;;;;;;5051978;28;20193;-72
2023/07/05 14:05:12;;;;;;;1.93;1.80;;;;;;;;;;5051737;28;20188;-72
2023/07/05 14:07:39;;;;;;;3.53;2.27;;;;;;;;;;5031595;28;20193;-72
2023/07/05 14:10:05;;;;;;;2.40;1.90;;;;;;;;;;5036123;28;20186;-72
2023/07/05 14:12:31;;;;;;;3.17;1.90;;;;;;;;;;5050838;28;20197;-72
2023/07/05 14:14:57;;;;;;;3.03;1.97;;;;;;;;;;5051235;28;20204;-72
2023/07/05 14:17:24;;;;;;;3.17;2.17;;;;;;;;;;5029770;28;20221;-72
2023/07/05 14:19:50;;;;;;;4.73;2.10;;;;;;;;;;5050952;28;20717;-72
2023/07/05 14:22:17;;;;;;;2.40;2.20;;;;;;;;;;5050093;28;20214;-72
2023/07/05 14:24:45;;;;;;;5.13;2.10;;;;;;;;;;5051911;28;20276;-72
2023/07/05 14:27:18;;;;;;;2.50;2.13;;;;;;;;;;5050783;28;20206;-72
2023/07/05 14:29:45;;;;;;;3.47;2.27;;;;;;;;;;5050833;28;20596;-72
2023/07/05 14:32:12;;;;;;;3.73;2.00;;;;;;;;;;5049795;28;20414;-72
2023/07/05 14:34:38;;;;;;;3.60;2.10;;;;;;;;;;5051794;28;20200;-72
2023/07/05 14:37:05;;;;;;;3.53;2.03;;;;;;;;;;5051028;28;20234;-72
2023/07/05 14:39:31;;;;;;;3.37;2.10;;;;;;;;;;5051941;28;20184;-72
2023/07/05 14:41:57;;;;;;;3.30;2.40;;;;;;;;;;5050326;28;20681;-72
2023/07/05 14:44:23;;;;;;;3.17;2.20;;;;;;;;;;5050879;28;20240;-72
2023/07/05 14:46:49;;;;;;;4.27;2.50;;;;;;;;;;5050309;28;20255;-72
2023/07/05 14:49:15;;;;;;;5.30;2.50;;;;;;;;;;5046390;28;20712;-71
2023/07/05 14:51:42;;;;;;;2.77;1.97;;;;;;;;;;5050381;28;20222;-71